Portada
METAR-TAF:

METAR-TAF

Aeropuertos :

Niamey, Níger

Aeropuerto Internacional Diori Hamani

latitud: 13-29N, longitud: 002-10E, altitud: 223 m

Observación

El informe se hizo hace 2 horas y 14 minutos, a las 11:00 UTC
Viento 13 kt del este
Temperatura 36°C
Humedad 13%
Presión 1015 hPa
Visibilidad: 7000 m

METAR: DRRN 171100Z 09013KT 7000 NSC 36/03 Q1015 NOSIG

Hora: 14:14 (13:14 UTC)

Pronóstico

El informe se hizo hace 2 horas y 14 minutos, a las 11:00 UTC
Pronóstico válido del 17 a las 12 UTC al 18 a las 18 UTC
Viento 10 kt del este
Visibilidad: 8000 m
Temporalmente
del 17 a las 18 UTC al 17 a las 20 UTC
Visibilidad: 4000 m
Polvo extendido
Temporalmente
del 18 a las 06 UTC al 18 a las 08 UTC
Visibilidad: 3500 m
Polvo extendido

TAF: DRRN 171100Z 1712/1818 08010KT 8000 NSC TEMPO 1718/1720 4000 DU TEMPO 1806/1808 3500 DU

Observaciones y pronósticos meteorológicos de más de 4000 aeropuertos (mensajes METAR y TAF).

Los puntos amarillos y rojos representan las estaciones disponibles.

Ponga el ratón en el punto deseado para ver el nombre de la estación.

Haga clic para ver las observaciones y los pronósticos meteorológicos.

Para cambiar el mapa : haga clic en los botones verdes con una cruz de color negro para hacer un zoom, en el botón verde con un guión para alejar o en las flechas verdes para mapas adyacentes.


METAR-TAF: